Time;durP1;ratioP1;P1;durP2;ratioP2;P2;SDS_P1;SDS_P2;PMS_P1;PMS_P2;Temp;Humidity;BMP_temperature;BMP_pressure;BME280_temperature;BME280_humidity;BME280_pressure;Samples;Min_cycle;Max_cycle;Signal;HPM_P1;HPM_P2
2021/09/27 00:01:00;;;;;;;4.60;4.20;;;;;;;19.42;82.66;100833.66;5095510;28;20590;-84
2021/09/27 00:03:27;;;;;;;6.57;4.20;;;;;;;19.40;82.60;100845.59;5088229;28;20231;-84
2021/09/27 00:05:56;;;;;;;9.23;5.57;;;;;;;19.37;82.82;100849.44;5090141;28;20230;-83
2021/09/27 00:08:23;;;;;;;7.50;5.53;;;;;;;19.34;82.85;100851.63;5098424;28;20260;-83
2021/09/27 00:10:53;;;;;;;5.47;4.87;;;;;;;19.32;83.05;100848.22;5103077;28;20203;-84
2021/09/27 00:13:22;;;;;;;6.50;5.27;;;;;;;19.28;83.59;100849.50;5096386;28;20672;-83
2021/09/27 00:15:52;;;;;;;6.97;5.97;;;;;;;19.27;83.83;100853.19;5095624;28;20227;-82
2021/09/27 00:18:21;;;;;;;6.53;5.77;;;;;;;19.24;83.84;100845.41;5096589;28;20196;-83
2021/09/27 00:20:49;;;;;;;7.80;5.70;;;;;;;19.23;84.01;100847.25;5096660;28;20755;-82
2021/09/27 00:23:17;;;;;;;6.83;6.13;;;;;;;19.21;84.28;100845.69;5095974;28;20205;-82
2021/09/27 00:25:44;;;;;;;8.40;6.60;;;;;;;19.21;84.45;100856.47;5096044;28;20216;-84
2021/09/27 00:28:11;;;;;;;7.17;6.47;;;;;;;19.19;84.44;100848.53;5095668;28;20213;-84
2021/09/27 00:30:37;;;;;;;8.43;6.43;;;;;;;19.19;84.69;100848.53;5095119;28;20201;-84
2021/09/27 00:33:05;;;;;;;9.00;7.10;;;;;;;19.17;84.86;100857.81;5088423;28;20570;-84
2021/09/27 00:35:36;;;;;;;7.57;6.87;;;;;;;19.16;85.02;100854.25;5094894;28;20205;-83
2021/09/27 00:38:03;;;;;;;7.87;6.47;;;;;;;19.16;84.96;100856.94;5115445;28;20197;-84
2021/09/27 00:40:33;;;;;;;7.00;6.33;;;;;;;19.16;84.90;100854.25;5103421;28;20224;-83
2021/09/27 00:43:01;;;;;;;7.60;6.90;;;;;;;19.15;85.23;100852.53;5094654;28;20213;-83
2021/09/27 00:45:32;;;;;;;7.73;6.73;;;;;;;19.15;85.14;100855.25;5094856;28;20201;-83
2021/09/27 00:48:00;;;;;;;7.60;6.87;;;;;;;19.14;84.96;100856.25;5095058;28;20582;-81
2021/09/27 00:50:30;;;;;;;10.27;7.93;;;;;;;19.13;85.08;100851.84;5095123;28;20232;-82
2021/09/27 00:52:59;;;;;;;10.50;8.40;;;;;;;19.13;85.13;100854.53;5094613;28;20217;-83
2021/09/27 00:55:26;;;;;;;9.10;8.20;;;;;;;19.13;85.37;100851.84;5094706;28;20210;-82
2021/09/27 00:57:55;;;;;;;7.70;6.83;;;;;;;19.14;85.37;100855.38;5094463;28;20293;-81
2021/09/27 01:00:26;;;;;;;8.27;7.00;;;;;;;19.13;85.26;100865.34;5093555;28;20234;-82
2021/09/27 01:02:52;;;;;;;8.77;7.97;;;;;;;19.13;85.29;100859.94;5093857;28;20207;-82
2021/09/27 01:05:22;;;;;;;10.27;8.30;;;;;;;19.13;85.38;100856.38;5094048;28;20664;-82
2021/09/27 01:07:53;;;;;;;8.23;7.33;;;;;;;19.13;85.45;100857.25;5094597;28;20203;-81
2021/09/27 01:10:50;;;;;;;9.73;8.73;;;;;;;19.11;85.28;100856.53;5093842;28;20192;-81
2021/09/27 01:13:38;;;;;;;9.43;8.50;;;;;;;19.11;85.63;100859.22;5093938;28;20284;-81
2021/09/27 01:16:14;;;;;;;13.23;11.10;;;;;;;19.10;85.77;100856.69;5110815;28;20221;-84
2021/09/27 01:18:53;;;;;;;11.00;10.00;;;;;;;19.10;85.60;100856.69;5114566;28;20200;-84
2021/09/27 01:21:37;;;;;;;15.20;11.90;;;;;;;19.08;85.73;100844.19;5102483;28;20207;-82
2021/09/27 01:24:38;;;;;;;12.03;10.63;;;;;;;19.10;85.69;100853.97;5094572;28;20718;-82
2021/09/27 01:27:42;;;;;;;15.53;12.90;;;;;;;19.07;85.84;100845.16;5094628;28;20219;-82
2021/09/27 01:30:42;;;;;;;16.33;14.13;;;;;;;19.05;86.04;100849.00;5095263;28;20256;-81
2021/09/27 01:33:14;;;;;;;15.50;13.87;;;;;;;19.02;86.13;100847.44;5095102;28;20197;-81
2021/09/27 01:35:49;;;;;;;13.17;11.33;;;;;;;19.00;86.12;100845.88;5095228;28;20220;-81
2021/09/27 01:38:27;;;;;;;12.47;9.97;;;;;;;18.98;86.19;100847.91;5095195;28;20194;-82
2021/09/27 01:41:13;;;;;;;12.30;10.90;;;;;;;18.93;86.19;100842.94;5095847;28;20211;-81
2021/09/27 01:43:45;;;;;;;13.90;10.37;;;;;;;18.93;86.41;100850.19;5095789;28;20195;-81
2021/09/27 01:46:19;;;;;;;12.90;10.63;;;;;;;18.92;86.55;100853.88;5095381;28;20222;-82
2021/09/27 01:48:53;;;;;;;13.67;10.77;;;;;;;18.91;86.63;100849.47;5095136;28;20195;-82
2021/09/27 01:51:28;;;;;;;13.43;12.03;;;;;;;18.90;86.61;100847.78;5095163;28;20526;-82
2021/09/27 01:54:02;;;;;;;12.97;11.67;;;;;;;18.91;86.70;100854.88;5095510;28;20195;-82
2021/09/27 01:56:35;;;;;;;13.77;12.30;;;;;;;18.90;86.79;100847.78;5095609;28;20225;-82
2021/09/27 01:59:09;;;;;;;14.03;12.67;;;;;;;18.90;86.96;100836.97;5094846;28;20546;-82
2021/09/27 02:01:46;;;;;;;13.93;12.53;;;;;;;18.90;87.04;100837.84;5095250;28;20597;-82
2021/09/27 02:04:21;;;;;;;15.43;12.40;;;;;;;18.88;87.05;100842.53;5093502;28;20282;-82
2021/09/27 02:06:50;;;;;;;16.13;13.40;;;;;;;18.87;87.09;100840.81;5092990;28;20230;-82
2021/09/27 02:09:20;;;;;;;15.37;12.47;;;;;;;18.87;87.64;100838.13;5101630;28;20196;-82
2021/09/27 02:11:51;;;;;;;16.90;14.03;;;;;;;18.87;87.52;100837.28;5099417;28;20683;-83
2021/09/27 02:14:26;;;;;;;15.10;13.50;;;;;;;18.87;87.59;100842.66;5106583;28;20285;-83
2021/09/27 02:16:59;;;;;;;13.60;12.23;;;;;;;18.85;87.74;100840.13;5115116;28;20223;-83
2021/09/27 02:19:36;;;;;;;16.10;13.00;;;;;;;18.84;87.57;100842.94;5074086;28;20193;-83
2021/09/27 02:22:10;;;;;;;14.13;12.63;;;;;;;18.83;87.76;100844.81;5092314;28;20680;-83
2021/09/27 02:24:42;;;;;;;14.23;12.73;;;;;;;18.81;87.89;100844.09;5094051;28;20200;-83
2021/09/27 02:27:09;;;;;;;15.53;13.87;;;;;;;18.79;87.83;100846.09;5093936;28;20238;-83
2021/09/27 02:29:36;;;;;;;14.93;13.27;;;;;;;18.78;87.94;100848.94;5092663;28;20213;-83
2021/09/27 02:32:09;;;;;;;15.50;13.83;;;;;;;18.77;87.90;100849.94;5101224;28;20225;-82
2021/09/27 02:34:48;;;;;;;15.57;14.07;;;;;;;18.76;87.97;100850.94;5073864;28;20613;-83
2021/09/27 02:37:20;;;;;;;16.03;14.27;;;;;;;18.75;88.13;100852.78;5080612;28;20223;-83
2021/09/27 02:39:53;;;;;;;17.13;14.87;;;;;;;18.75;88.18;100851.94;5105455;28;20198;-82
2021/09/27 02:42:27;;;;;;;15.60;13.80;;;;;;;18.75;88.31;100860.03;5098950;28;20217;-83
2021/09/27 02:44:54;;;;;;;18.73;14.50;;;;;;;18.73;88.36;100863.72;5093695;28;20211;-83
2021/09/27 02:47:26;;;;;;;15.63;13.87;;;;;;;18.73;88.44;100863.72;5094148;28;20226;-82
2021/09/27 02:49:57;;;;;;;19.57;15.03;;;;;;;18.72;88.43;100859.31;5093486;28;20284;-82
2021/09/27 02:52:23;;;;;;;19.80;14.90;;;;;;;18.71;88.36;100860.31;5093696;28;20196;-82
2021/09/27 02:54:53;;;;;;;17.63;15.17;;;;;;;18.69;88.37;100851.50;5094356;28;20218;-82
2021/09/27 02:57:47;;;;;;;16.83;14.70;;;;;;;18.69;88.57;100856.91;5089002;28;20230;-82
2021/09/27 03:00:18;;;;;;;19.13;15.17;;;;;;;18.67;88.64;100852.63;5066766;28;20205;-82
2021/09/27 03:02:56;;;;;;;18.47;15.50;;;;;;;18.66;88.74;100859.88;5092753;28;20233;-81
2021/09/27 03:05:35;;;;;;;16.90;14.97;;;;;;;18.65;88.78;100858.19;5093779;28;20198;-82
2021/09/27 03:08:20;;;;;;;17.30;14.90;;;;;;;18.64;88.95;100859.16;5093143;28;20196;-82
2021/09/27 03:11:02;;;;;;;18.07;15.33;;;;;;;18.63;88.87;100846.69;5093493;28;20272;-82
2021/09/27 03:13:35;;;;;;;16.90;15.20;;;;;;;18.63;89.16;100851.25;5093379;28;20635;-82
2021/09/27 03:16:29;;;;;;;17.30;15.30;;;;;;;18.60;88.80;100846.13;5093310;28;20225;-82
2021/09/27 03:19:14;;;;;;;18.00;15.37;;;;;;;18.59;89.21;100847.13;5093139;28;20195;-81
2021/09/27 03:21:55;;;;;;;17.17;15.40;;;;;;;18.56;89.13;100837.44;5089088;28;20240;-82
2021/09/27 03:24:39;;;;;;;15.97;14.20;;;;;;;18.55;89.32;100838.44;5097246;28;20330;-81
2021/09/27 03:27:15;;;;;;;18.97;17.00;;;;;;;18.53;89.42;100835.03;5096797;28;20220;-81
2021/09/27 03:29:52;;;;;;;16.37;14.63;;;;;;;18.52;89.48;100830.63;5096171;28;20190;-81
2021/09/27 03:32:26;;;;;;;16.53;14.77;;;;;;;18.51;89.72;100830.78;5096913;28;20207;-81
2021/09/27 03:35:01;;;;;;;15.50;13.67;;;;;;;18.48;89.67;100825.66;5096601;28;20197;-82
2021/09/27 03:37:41;;;;;;;17.03;14.80;;;;;;;18.45;89.49;100821.41;5096489;28;20237;-81
2021/09/27 03:40:23;;;;;;;15.43;13.43;;;;;;;18.42;89.46;100820.84;5096511;28;20268;-82
2021/09/27 03:43:02;;;;;;;23.70;13.93;;;;;;;18.39;89.48;100817.44;5096339;28;20214;-81
2021/09/27 03:45:35;;;;;;;14.93;13.43;;;;;;;18.36;89.77;100812.34;5096207;28;20199;-82
2021/09/27 03:48:06;;;;;;;15.93;14.20;;;;;;;18.34;89.89;100808.94;5096144;28;20185;-81
2021/09/27 03:50:38;;;;;;;21.57;16.23;;;;;;;18.33;89.90;100809.91;5095639;28;20211;-81
2021/09/27 03:53:09;;;;;;;17.27;13.60;;;;;;;18.32;89.92;100804.66;5095941;28;20190;-82
2021/09/27 03:55:42;;;;;;;14.80;13.27;;;;;;;18.30;90.15;100809.34;5096160;28;20186;-83
2021/09/27 03:58:15;;;;;;;14.60;13.17;;;;;;;18.31;90.19;100808.34;5096308;28;20201;-83
2021/09/27 04:00:49;;;;;;;16.90;13.63;;;;;;;18.30;90.18;100804.81;5095859;28;20199;-82
2021/09/27 04:03:39;;;;;;;16.03;14.10;;;;;;;18.29;90.27;100804.94;5095831;28;20228;-81
2021/09/27 04:06:19;;;;;;;15.80;14.10;;;;;;;18.28;90.20;100804.09;5095474;28;20298;-82
2021/09/27 04:08:59;;;;;;;18.33;13.13;;;;;;;18.28;90.37;100796.00;5092544;28;20258;-82
2021/09/27 04:11:35;;;;;;;15.00;12.40;;;;;;;18.27;90.16;100794.31;5094314;28;20196;-81
2021/09/27 04:14:09;;;;;;;15.97;12.87;;;;;;;18.25;90.28;100782.00;5103026;28;20202;-83
2021/09/27 04:16:46;;;;;;;14.93;13.43;;;;;;;18.22;90.26;100779.56;5082985;28;20231;-82
2021/09/27 04:19:22;;;;;;;14.73;12.37;;;;;;;18.21;90.25;100785.97;5083828;28;20193;-82
2021/09/27 04:21:56;;;;;;;15.27;13.63;;;;;;;18.19;90.39;100788.78;5081740;28;20217;-82
2021/09/27 04:24:38;;;;;;;16.17;12.53;;;;;;;18.19;90.47;100788.78;5081393;28;20666;-82
2021/09/27 04:27:20;;;;;;;14.77;13.27;;;;;;;18.18;90.40;100789.78;5086285;28;20225;-81
2021/09/27 04:30:08;;;;;;;16.93;14.70;;;;;;;18.19;90.47;100796.88;5084210;28;20211;-82
2021/09/27 04:32:51;;;;;;;18.40;14.13;;;;;;;18.19;90.77;100798.72;5084304;28;20197;-82
2021/09/27 04:35:30;;;;;;;16.17;13.53;;;;;;;18.21;90.71;100804.84;5085205;28;20790;-83
2021/09/27 04:37:57;;;;;;;17.10;14.07;;;;;;;18.20;90.80;100798.59;5080845;28;20201;-83
2021/09/27 04:40:46;;;;;;;16.20;14.20;;;;;;;18.21;90.81;100794.03;5089221;28;20201;-84
2021/09/27 04:43:23;;;;;;;17.00;13.73;;;;;;;18.20;90.82;100790.50;5087641;28;20222;-81
2021/09/27 04:46:04;;;;;;;17.17;14.57;;;;;;;18.19;90.88;100787.94;5080847;28;20711;-82
2021/09/27 04:48:48;;;;;;;15.87;14.27;;;;;;;18.16;90.68;100789.06;5084231;28;20650;-82
2021/09/27 04:51:22;;;;;;;14.73;13.27;;;;;;;18.13;90.41;100788.50;5080886;28;20681;-83
2021/09/27 04:54:09;;;;;;;16.47;13.17;;;;;;;18.07;90.41;100783.69;5080546;28;20199;-81
2021/09/27 04:56:46;;;;;;;14.93;13.10;;;;;;;18.02;90.45;100781.44;5077598;28;20223;-82
2021/09/27 04:59:22;;;;;;;15.60;13.77;;;;;;;17.99;90.39;100790.63;5084850;28;20211;-83
2021/09/27 05:02:02;;;;;;;15.10;13.60;;;;;;;17.97;90.49;100781.84;5085173;28;20209;-83
2021/09/27 05:04:37;;;;;;;15.40;13.90;;;;;;;17.97;90.61;100789.94;5086176;28;20208;-82
2021/09/27 05:07:28;;;;;;;15.57;13.70;;;;;;;17.98;90.61;100790.78;5084750;28;20219;-84
2021/09/27 05:10:07;;;;;;;14.90;13.43;;;;;;;17.98;90.52;100790.78;5086767;28;20290;-81
2021/09/27 05:13:05;;;;;;;14.27;12.80;;;;;;;17.96;90.50;100792.75;5079943;28;20197;-82
2021/09/27 05:15:52;;;;;;;13.33;11.93;;;;;;;17.95;90.34;100791.06;5083632;28;20193;-83
2021/09/27 05:18:46;;;;;;;15.30;13.70;;;;;;;17.94;90.18;100789.34;5081108;28;20201;-83
2021/09/27 05:21:28;;;;;;;14.70;12.83;;;;;;;17.94;90.37;100783.97;5088970;28;20579;-83
2021/09/27 05:24:11;;;;;;;15.97;12.27;;;;;;;17.92;90.30;100792.19;5080318;28;20202;-84
2021/09/27 05:26:58;;;;;;;16.50;13.37;;;;;;;17.92;90.17;100792.19;5100731;28;20230;-82
2021/09/27 05:29:43;;;;;;;15.03;12.37;;;;;;;17.90;90.04;100783.41;5086827;28;20661;-81
2021/09/27 05:32:23;;;;;;;17.23;12.60;;;;;;;17.88;89.91;100790.78;5091776;28;20215;-81
2021/09/27 05:35:05;;;;;;;14.50;13.00;;;;;;;17.87;90.11;100781.00;5091743;28;20193;-81
2021/09/27 05:37:46;;;;;;;15.10;13.10;;;;;;;17.83;90.01;100779.56;5105674;28;20229;-82
2021/09/27 05:40:29;;;;;;;14.63;13.13;;;;;;;17.81;89.93;100784.25;5113465;28;20210;-81
2021/09/27 05:43:22;;;;;;;16.03;13.50;;;;;;;17.79;89.72;100786.22;5114527;28;20711;-82
2021/09/27 05:46:09;;;;;;;14.83;13.40;;;;;;;17.76;89.72;100781.09;5113662;28;20233;-82
2021/09/27 05:48:41;;;;;;;17.67;12.90;;;;;;;17.76;89.78;100785.66;5113808;28;20268;-82
2021/09/27 05:51:14;;;;;;;15.27;13.67;;;;;;;17.73;89.65;100780.56;5114216;28;20200;-83
2021/09/27 05:53:50;;;;;;;16.87;12.70;;;;;;;17.69;89.43;100771.91;5113987;28;20220;-83
2021/09/27 05:56:25;;;;;;;14.83;12.77;;;;;;;17.64;89.56;100766.94;5114211;28;20238;-82
2021/09/27 05:58:58;;;;;;;14.57;12.67;;;;;;;17.59;89.09;100776.38;5113725;28;20194;-81
2021/09/27 06:01:39;;;;;;;14.13;12.37;;;;;;;17.52;89.26;100768.03;5113863;28;20191;-83
2021/09/27 06:04:17;;;;;;;13.50;12.13;;;;;;;17.48;89.41;100760.34;5114921;28;20277;-81
2021/09/27 06:06:53;;;;;;;14.27;12.97;;;;;;;17.46;89.25;100767.72;5114341;28;20252;-81
2021/09/27 06:09:35;;;;;;;13.97;12.03;;;;;;;17.44;89.56;100775.94;5114175;28;20194;-82
2021/09/27 06:12:08;;;;;;;14.47;13.00;;;;;;;17.45;89.64;100779.47;5113838;28;20191;-81
2021/09/27 06:14:36;;;;;;;15.37;13.27;;;;;;;17.45;89.65;100771.38;5114705;28;20556;-81
2021/09/27 06:17:18;;;;;;;14.90;13.23;;;;;;;17.45;89.69;100771.38;5095506;28;20226;-82
2021/09/27 06:19:47;;;;;;;15.87;13.70;;;;;;;17.45;89.80;100772.25;5093709;28;20542;-82
2021/09/27 06:22:45;;;;;;;16.53;14.83;;;;;;;17.46;89.71;100773.94;5093470;28;20223;-81
2021/09/27 06:25:19;;;;;;;16.50;13.53;;;;;;;17.43;89.68;100776.91;5089002;28;20204;-82
2021/09/27 06:27:57;;;;;;;14.47;13.03;;;;;;;17.40;89.71;100770.94;5092979;28;20191;-81
2021/09/27 06:30:29;;;;;;;18.20;15.20;;;;;;;17.38;89.84;100781.84;5092931;28;20664;-81
2021/09/27 06:33:09;;;;;;;17.87;15.47;;;;;;;17.38;89.92;100781.84;5093105;28;20203;-81
2021/09/27 06:35:42;;;;;;;18.00;15.17;;;;;;;17.39;90.21;100785.41;5093401;28;20185;-83
2021/09/27 06:38:12;;;;;;;17.07;15.33;;;;;;;17.38;90.27;100783.72;5093536;28;20185;-82
2021/09/27 06:40:42;;;;;;;16.57;14.50;;;;;;;17.39;90.28;100775.47;5093021;28;20216;-81
2021/09/27 06:43:12;;;;;;;16.93;15.13;;;;;;;17.39;90.33;100777.31;5092920;28;20239;-81
2021/09/27 06:45:38;;;;;;;18.87;15.63;;;;;;;17.37;90.49;100784.72;5092673;28;20571;-80
2021/09/27 06:48:06;;;;;;;16.27;14.57;;;;;;;17.37;90.53;100785.56;5092555;28;20204;-82
2021/09/27 06:50:33;;;;;;;16.93;15.23;;;;;;;17.35;90.48;100788.38;5091762;28;20207;-81
2021/09/27 06:53:00;;;;;;;16.47;14.87;;;;;;;17.34;90.61;100785.84;5092456;28;20209;-82
2021/09/27 06:55:26;;;;;;;17.57;15.77;;;;;;;17.33;90.81;100787.66;5093552;28;20212;-83
2021/09/27 06:57:53;;;;;;;18.40;16.07;;;;;;;17.32;90.80;100785.13;5095790;28;20205;-82
2021/09/27 07:00:19;;;;;;;18.87;16.90;;;;;;;17.32;90.91;100785.97;5096849;28;20234;-83
2021/09/27 07:02:46;;;;;;;19.00;17.00;;;;;;;17.33;91.06;100784.97;5096627;28;20253;-81
2021/09/27 07:05:14;;;;;;;19.63;16.90;;;;;;;17.35;91.40;100788.38;5096619;28;20216;-83
2021/09/27 07:07:42;;;;;;;23.93;18.07;;;;;;;17.38;91.60;100781.84;5096394;28;20696;-83
2021/09/27 07:10:13;;;;;;;20.47;16.17;;;;;;;17.43;91.72;100781.44;5096207;28;20207;-83
2021/09/27 07:12:39;;;;;;;20.10;17.57;;;;;;;17.47;91.90;100782.88;5096351;28;20186;-83
2021/09/27 07:15:08;;;;;;;22.00;17.80;;;;;;;17.52;92.22;100784.19;5096389;28;20229;-84
2021/09/27 07:17:36;;;;;;;21.97;17.83;;;;;;;17.57;92.33;100778.34;5096541;28;20222;-83
2021/09/27 07:20:04;;;;;;;24.53;18.03;;;;;;;17.62;92.49;100785.03;5096468;28;20215;-82
2021/09/27 07:22:32;;;;;;;21.43;17.40;;;;;;;17.69;92.47;100782.69;5096522;28;20225;-84
2021/09/27 07:24:59;;;;;;;21.77;18.87;;;;;;;17.76;92.64;100780.25;5096424;28;20204;-85
2021/09/27 07:27:25;;;;;;;26.97;19.70;;;;;;;17.83;92.78;100787.66;5096384;28;20570;-83
2021/09/27 07:29:52;;;;;;;22.20;18.93;;;;;;;17.93;93.20;100790.34;5096220;28;20208;-84
2021/09/27 07:32:18;;;;;;;21.17;18.90;;;;;;;18.00;92.92;100783.41;5095975;28;20215;-83
2021/09/27 07:34:45;;;;;;;22.03;18.13;;;;;;;18.09;92.92;100785.25;5096190;28;20561;-83
2021/09/27 07:37:12;;;;;;;22.70;17.20;;;;;;;18.16;92.64;100783.69;5104506;28;20884;-84
2021/09/27 07:39:40;;;;;;;20.60;17.47;;;;;;;18.26;92.88;100783.69;5116284;28;20205;-82
2021/09/27 07:42:08;;;;;;;19.80;17.27;;;;;;;18.34;92.71;100775.72;5115950;28;20572;-84
2021/09/27 07:44:36;;;;;;;20.57;17.87;;;;;;;18.43;92.40;100782.13;5116363;28;20210;-83
2021/09/27 07:47:03;;;;;;;20.20;17.50;;;;;;;18.53;92.48;100785.63;5115558;28;20278;-82
2021/09/27 07:49:29;;;;;;;20.43;17.33;;;;;;;18.62;92.02;100791.06;5116136;28;20259;-83
2021/09/27 07:51:57;;;;;;;18.37;16.43;;;;;;;18.72;91.97;100785.63;5116494;28;20205;-83
2021/09/27 07:54:24;;;;;;;16.23;14.50;;;;;;;18.82;91.61;100782.88;5116267;28;20199;-82
2021/09/27 07:56:52;;;;;;;17.40;15.43;;;;;;;18.90;90.67;100788.41;5117077;28;20323;-83
2021/09/27 07:59:19;;;;;;;15.30;13.70;;;;;;;18.95;90.00;100781.56;5116398;28;20208;-84
2021/09/27 08:01:45;;;;;;;16.33;14.73;;;;;;;19.03;89.10;100780.81;5116184;28;20880;-84
2021/09/27 08:04:15;;;;;;;16.07;14.50;;;;;;;19.07;88.13;100776.84;5116126;28;20237;-84
2021/09/27 08:06:41;;;;;;;16.53;14.83;;;;;;;19.14;87.62;100777.09;5116167;28;20231;-83
2021/09/27 08:09:10;;;;;;;15.40;13.80;;;;;;;19.22;87.21;100775.34;5115978;28;20210;-86
2021/09/27 08:11:40;;;;;;;15.67;14.07;;;;;;;19.31;86.54;100774.44;5115973;28;20211;-84
2021/09/27 08:14:08;;;;;;;15.17;13.67;;;;;;;19.40;86.06;100776.22;5115978;28;20580;-85
2021/09/27 08:16:34;;;;;;;14.47;13.07;;;;;;;19.49;85.37;100777.19;5115452;28;20231;-85
2021/09/27 08:19:01;;;;;;;14.40;12.90;;;;;;;19.60;84.79;100776.16;5115344;28;20613;-84
2021/09/27 08:21:28;;;;;;;14.20;12.80;;;;;;;19.68;84.02;100776.25;5115357;28;20212;-85
2021/09/27 08:23:54;;;;;;;13.47;12.30;;;;;;;19.76;83.55;100782.56;5114935;28;20235;-84
2021/09/27 08:26:21;;;;;;;13.90;12.50;;;;;;;19.86;83.03;100774.41;5115184;28;20226;-84
2021/09/27 08:28:49;;;;;;;13.40;12.10;;;;;;;19.97;81.95;100767.91;5115693;28;20229;-83
2021/09/27 08:31:19;;;;;;;13.50;12.10;;;;;;;20.03;81.21;100768.16;5115060;28;20913;-84
2021/09/27 08:33:48;;;;;;;13.23;11.90;;;;;;;20.08;80.67;100765.81;5115038;28;20195;-84
2021/09/27 08:36:16;;;;;;;12.80;11.60;;;;;;;20.10;79.98;100769.22;5115688;28;20589;-82
2021/09/27 08:38:43;;;;;;;14.13;12.50;;;;;;;20.16;79.53;100764.19;5114839;28;20210;-82
2021/09/27 08:41:19;;;;;;;12.87;11.67;;;;;;;20.24;79.37;100759.72;5115578;28;20204;-85
2021/09/27 08:44:06;;;;;;;13.63;12.20;;;;;;;20.33;78.89;100764.19;5115723;28;20898;-83
2021/09/27 08:46:41;;;;;;;13.93;12.53;;;;;;;20.44;79.08;100771.19;5114977;28;20283;-83
2021/09/27 08:49:16;;;;;;;13.60;12.30;;;;;;;20.55;78.67;100767.41;5115348;28;20645;-83
2021/09/27 08:51:44;;;;;;;13.57;11.57;;;;;;;20.60;77.86;100775.91;5115405;28;20194;-84
2021/09/27 08:54:15;;;;;;;12.25;10.95;;;;;;;20.62;76.87;100781.97;5115187;28;20568;-84
2021/09/27 08:56:46;;;;;;;12.23;11.00;;;;;;;20.64;76.41;100774.56;5115047;28;20754;-84
2021/09/27 08:59:20;;;;;;;12.65;11.50;;;;;;;20.67;75.84;100777.81;5115287;28;20201;-84
2021/09/27 09:01:56;;;;;;;11.87;10.67;;;;;;;20.72;75.43;100783.59;5114412;28;20290;-84
2021/09/27 09:04:30;;;;;;;12.52;11.32;;;;;;;20.75;74.97;100780.56;5114834;28;20210;-83
2021/09/27 09:07:01;;;;;;;12.87;11.57;;;;;;;20.84;74.91;100783.31;5114796;28;20237;-83
2021/09/27 09:09:37;;;;;;;12.57;11.20;;;;;;;20.91;74.32;100776.25;5114805;28;20206;-83
2021/09/27 09:12:14;;;;;;;13.18;11.90;;;;;;;20.97;73.80;100775.59;5114880;28;20183;-84
2021/09/27 09:14:44;;;;;;;12.95;11.68;;;;;;;21.04;73.87;100784.78;5114841;28;20184;-82
2021/09/27 09:17:19;;;;;;;11.40;10.35;;;;;;;21.11;73.84;100788.56;5114892;28;20561;-83
2021/09/27 09:19:47;;;;;;;11.30;10.18;;;;;;;21.18;73.01;100786.88;5113725;28;20649;-83
2021/09/27 09:22:22;;;;;;;11.35;10.25;;;;;;;21.18;72.32;100786.88;5114421;28;20559;-84
2021/09/27 09:24:49;;;;;;;10.70;9.70;;;;;;;21.15;71.31;100774.50;5114210;28;20217;-84
2021/09/27 09:27:16;;;;;;;10.35;9.45;;;;;;;21.16;71.26;100783.47;5110764;28;20564;-83
2021/09/27 09:29:45;;;;;;;10.30;9.18;;;;;;;21.19;70.92;100783.16;5093458;28;20210;-84
2021/09/27 09:32:17;;;;;;;10.75;9.75;;;;;;;21.23;71.03;100784.56;5093518;28;20208;-84
2021/09/27 09:34:45;;;;;;;9.32;8.52;;;;;;;21.25;70.60;100785.28;5088421;28;20196;-84
2021/09/27 09:37:21;;;;;;;10.55;9.55;;;;;;;21.29;70.33;100794.78;5082772;28;20246;-84
2021/09/27 09:39:57;;;;;;;11.02;10.00;;;;;;;21.31;69.82;100790.03;5087843;28;20673;-84
2021/09/27 09:42:33;;;;;;;11.05;9.93;;;;;;;21.38;69.69;100782.09;5088644;28;20625;-84
2021/09/27 09:45:14;;;;;;;12.05;9.65;;;;;;;21.44;69.56;100779.59;5080887;28;20192;-84
2021/09/27 09:47:43;;;;;;;9.75;8.85;;;;;;;21.50;69.24;100780.78;5084547;28;20625;-84
2021/09/27 09:50:13;;;;;;;10.55;9.52;;;;;;;21.56;68.88;100773.84;5082135;28;20693;-83
2021/09/27 09:52:43;;;;;;;9.52;8.63;;;;;;;21.60;68.84;100772.50;5081144;28;20200;-83
2021/09/27 09:55:19;;;;;;;10.27;9.23;;;;;;;21.63;68.40;100764.06;5085564;28;20195;-84
2021/09/27 09:57:56;;;;;;;9.93;8.93;;;;;;;21.64;68.21;100760.34;5082437;28;20226;-85
2021/09/27 10:00:54;;;;;;;9.85;8.95;;;;;;;21.66;68.44;100761.03;5086535;28;21286;-84
2021/09/27 10:03:29;;;;;;;9.65;8.57;;;;;;;21.72;68.52;100758.47;5088846;28;20247;-85
2021/09/27 10:06:01;;;;;;;8.98;7.90;;;;;;;21.78;68.17;100757.81;5081242;28;20223;-84
2021/09/27 10:08:28;;;;;;;11.70;8.50;;;;;;;21.85;67.92;100759.88;5086412;28;20208;-84
2021/09/27 10:10:59;;;;;;;8.95;8.05;;;;;;;21.89;67.92;100764.78;5082777;28;20258;-84
2021/09/27 10:13:30;;;;;;;8.40;7.50;;;;;;;21.96;67.77;100763.09;5091006;28;20210;-83
2021/09/27 10:15:57;;;;;;;8.27;7.50;;;;;;;21.99;67.23;100757.34;5093300;28;20222;-84
2021/09/27 10:18:28;;;;;;;8.15;7.22;;;;;;;22.03;66.70;100768.75;5092715;28;20551;-84
2021/09/27 10:21:04;;;;;;;7.68;6.95;;;;;;;22.03;66.37;100758.75;5093208;28;20187;-84
2021/09/27 10:23:34;;;;;;;7.53;6.82;;;;;;;22.04;66.29;100768.53;5093578;28;20210;-84
2021/09/27 10:26:16;;;;;;;8.85;7.15;;;;;;;22.09;66.33;100759.91;5093650;28;20277;-85
2021/09/27 10:28:44;;;;;;;7.47;6.70;;;;;;;22.09;65.79;100763.47;5093588;28;20660;-84
2021/09/27 10:31:12;;;;;;;7.80;6.97;;;;;;;22.10;65.30;100767.03;5094285;28;20583;-84
2021/09/27 10:33:43;;;;;;;6.97;6.32;;;;;;;22.08;65.10;100772.63;5092153;28;20225;-85
2021/09/27 10:36:16;;;;;;;6.05;5.50;;;;;;;22.06;64.51;100769.22;5093027;28;20686;-85
2021/09/27 10:38:46;;;;;;;6.97;6.30;;;;;;;22.05;64.61;100775.66;5093880;28;20194;-83
2021/09/27 10:41:18;;;;;;;6.15;5.65;;;;;;;22.09;64.50;100773.47;5093226;28;20199;-82
2021/09/27 10:43:45;;;;;;;6.55;5.95;;;;;;;22.11;64.08;100769.56;5093441;28;20231;-85
2021/09/27 10:46:12;;;;;;;6.20;5.60;;;;;;;22.12;63.93;100770.44;5093285;28;20224;-86
2021/09/27 10:48:45;;;;;;;5.70;4.95;;;;;;;22.14;63.69;100761.09;5093301;28;20207;-86
2021/09/27 10:51:13;;;;;;;7.80;5.20;;;;;;;22.16;63.70;100763.66;5093881;28;20187;-84
2021/09/27 10:53:50;;;;;;;5.97;5.38;;;;;;;22.17;63.69;100762.63;5093027;28;20196;-85
2021/09/27 10:56:25;;;;;;;6.15;5.40;;;;;;;22.21;63.57;100764.00;5093599;28;20249;-84
2021/09/27 10:58:55;;;;;;;7.50;5.07;;;;;;;22.24;61.99;100751.94;5092465;28;20238;-84
2021/09/27 11:01:40;;;;;;;5.30;4.80;;;;;;;22.21;62.40;100753.16;5093153;28;20200;-84
2021/09/27 11:04:14;;;;;;;5.13;4.63;;;;;;;22.25;62.46;100756.34;5091782;28;20234;-84
2021/09/27 11:06:48;;;;;;;4.63;4.13;;;;;;;22.31;62.51;100755.69;5092116;28;20231;-84
2021/09/27 11:09:28;;;;;;;6.03;4.63;;;;;;;22.33;61.48;100751.78;5091908;28;20197;-85
2021/09/27 11:12:00;;;;;;;4.85;3.83;;;;;;;22.31;61.17;100753.81;5092271;28;20217;-85
2021/09/27 11:14:32;;;;;;;5.30;4.50;;;;;;;22.32;60.72;100751.94;5092260;28;20207;-85
2021/09/27 11:17:21;;;;;;;5.72;4.18;;;;;;;22.33;60.85;100765.34;5092044;28;20277;-85
2021/09/27 11:20:05;;;;;;;4.85;3.95;;;;;;;22.37;60.77;100760.44;5077992;28;20207;-84
2021/09/27 11:22:44;;;;;;;6.47;4.43;;;;;;;22.35;60.96;100752.47;5083648;28;20198;-84
2021/09/27 11:25:32;;;;;;;5.45;4.05;;;;;;;22.32;60.57;100763.66;5082719;28;20216;-84
2021/09/27 11:28:16;;;;;;;4.93;4.10;;;;;;;22.32;60.53;100749.22;5085105;28;20196;-85
2021/09/27 11:30:45;;;;;;;4.45;4.10;;;;;;;22.29;60.02;100753.13;5083834;28;20212;-85
2021/09/27 11:33:40;;;;;;;4.63;4.13;;;;;;;22.25;60.02;100757.19;5079680;28;20192;-84
2021/09/27 11:36:25;;;;;;;6.25;4.78;;;;;;;22.19;60.16;100755.19;5086848;28;20711;-83
2021/09/27 11:39:22;;;;;;;5.97;4.53;;;;;;;22.19;60.79;100751.63;5076013;28;20663;-84
2021/09/27 11:42:27;;;;;;;5.45;4.57;;;;;;;22.23;61.44;100745.66;5077206;28;20200;-85
2021/09/27 11:45:10;;;;;;;6.57;4.63;;;;;;;22.20;60.35;100739.75;5030896;28;20228;-85
2021/09/27 11:48:00;;;;;;;5.45;4.80;;;;;;;22.14;60.88;100728.56;5091278;28;20246;-85